Time;durP1;ratioP1;P1;durP2;ratioP2;P2;SDS_P1;SDS_P2;PMS_P1;PMS_P2;Temp;Humidity;BMP_temperature;BMP_pressure;BME280_temperature;BME280_humidity;BME280_pressure;Samples;Min_cycle;Max_cycle;Signal;HPM_P1;HPM_P2
2023/02/04 00:00:40;;;;;;;14.33;4.40;;;6.50;99.90;;;;;;5095407;28;20486;-71
2023/02/04 00:03:10;;;;;;;11.57;4.30;;;6.50;99.90;;;;;;5113477;28;20485;-72
2023/02/04 00:05:38;;;;;;;11.63;3.70;;;6.40;99.90;;;;;;5113453;28;20496;-71
2023/02/04 00:08:06;;;;;;;12.07;3.60;;;6.40;99.90;;;;;;5113851;28;20465;-71
2023/02/04 00:10:35;;;;;;;15.43;3.90;;;6.40;99.90;;;;;;5113404;28;20443;-71
2023/02/04 00:13:04;;;;;;;11.90;3.80;;;6.30;99.90;;;;;;5095074;28;20987;-71
2023/02/04 00:15:32;;;;;;;11.33;3.83;;;6.30;99.90;;;;;;5113478;28;20433;-71
2023/02/04 00:18:00;;;;;;;18.53;3.37;;;6.30;99.90;;;;;;5113356;28;20532;-71
2023/02/04 00:20:29;;;;;;;9.73;3.77;;;6.20;99.90;;;;;;5113778;28;20429;-71
2023/02/04 00:22:58;;;;;;;19.00;4.77;;;6.20;99.90;;;;;;5113820;28;20920;-71
2023/02/04 00:25:26;;;;;;;13.23;3.73;;;6.20;99.90;;;;;;5113536;28;20835;-71
2023/02/04 00:27:54;;;;;;;13.00;4.17;;;6.20;99.90;;;;;;5113095;28;21012;-70
2023/02/04 00:30:22;;;;;;;11.00;3.30;;;6.10;99.90;;;;;;5094920;28;20971;-70
2023/02/04 00:32:53;;;;;;;12.50;3.47;;;6.10;99.90;;;;;;5095970;28;20456;-71
2023/02/04 00:35:22;;;;;;;14.23;4.17;;;6.10;99.90;;;;;;5098624;28;20448;-71
2023/02/04 00:37:54;;;;;;;13.57;4.13;;;6.10;99.90;;;;;;5098463;28;20464;-71
2023/02/04 00:40:22;;;;;;;14.87;3.87;;;6.10;99.90;;;;;;5098523;28;20446;-70
2023/02/04 00:42:50;;;;;;;13.40;3.87;;;6.00;99.90;;;;;;5116776;28;20838;-70
2023/02/04 00:45:18;;;;;;;10.33;3.33;;;6.00;99.90;;;;;;5098455;28;20455;-71
2023/02/04 00:47:46;;;;;;;15.20;3.70;;;6.00;99.90;;;;;;5117047;28;20542;-71
2023/02/04 00:50:14;;;;;;;11.47;3.03;;;5.90;99.90;;;;;;5116929;28;20424;-72
2023/02/04 00:52:43;;;;;;;7.13;2.67;;;5.90;99.90;;;;;;5098260;28;20452;-71
2023/02/04 00:55:15;;;;;;;10.53;2.80;;;5.90;99.90;;;;;;5116489;28;20516;-71
2023/02/04 00:57:45;;;;;;;10.00;3.30;;;5.90;99.90;;;;;;5098059;28;20447;-70
2023/02/04 01:00:15;;;;;;;12.93;3.47;;;5.90;99.90;;;;;;5098149;28;20453;-71
2023/02/04 01:02:44;;;;;;;10.57;2.70;;;5.80;99.90;;;;;;5117029;28;20435;-71
2023/02/04 01:05:12;;;;;;;9.50;2.87;;;5.80;99.90;;;;;;5116840;28;20436;-71
2023/02/04 01:07:40;;;;;;;10.50;2.93;;;5.70;99.90;;;;;;5098219;28;20444;-72
2023/02/04 01:10:09;;;;;;;8.77;2.33;;;5.70;99.90;;;;;;5097944;28;20504;-72
2023/02/04 01:12:38;;;;;;;8.80;2.40;;;5.70;99.90;;;;;;5098005;28;20512;-70
2023/02/04 01:15:07;;;;;;;11.60;2.60;;;5.70;99.90;;;;;;5097792;28;21070;-70
2023/02/04 01:17:35;;;;;;;10.80;2.73;;;5.60;99.90;;;;;;5116010;28;20473;-71
2023/02/04 01:20:04;;;;;;;9.70;2.80;;;5.60;99.90;;;;;;5097799;28;20551;-72
2023/02/04 01:22:32;;;;;;;12.87;3.87;;;5.60;99.90;;;;;;5097727;28;20439;-71
2023/02/04 01:25:00;;;;;;;8.63;2.30;;;5.60;99.90;;;;;;5097643;28;20443;-72
2023/02/04 01:27:43;;;;;;;6.33;2.17;;;5.50;99.90;;;;;;5098496;28;20435;-70
2023/02/04 01:30:12;;;;;;;6.67;2.60;;;5.50;99.90;;;;;;5115821;28;20436;-72
2023/02/04 01:32:40;;;;;;;16.50;4.00;;;5.40;99.90;;;;;;5097548;28;20443;-70
2023/02/04 01:35:09;;;;;;;8.97;2.70;;;5.40;99.90;;;;;;5115747;28;20467;-71
2023/02/04 01:37:37;;;;;;;11.90;2.60;;;5.40;99.90;;;;;;5097411;28;20447;-71
2023/02/04 01:40:06;;;;;;;11.00;3.37;;;5.40;99.90;;;;;;5116263;28;20436;-71
2023/02/04 01:42:35;;;;;;;11.27;2.20;;;5.30;99.90;;;;;;5097371;28;20917;-71
2023/02/04 01:45:06;;;;;;;7.87;2.37;;;5.30;99.90;;;;;;5096629;28;20930;-71
2023/02/04 01:47:35;;;;;;;9.30;2.47;;;5.30;99.90;;;;;;5115507;28;20416;-71
2023/02/04 01:50:07;;;;;;;14.17;2.40;;;5.20;99.90;;;;;;5097299;28;20486;-71
2023/02/04 01:52:38;;;;;;;7.00;2.23;;;5.20;99.90;;;;;;5097142;28;20526;-71
2023/02/04 01:55:13;;;;;;;7.90;2.83;;;5.20;99.90;;;;;;5097106;28;20485;-71
2023/02/04 01:57:41;;;;;;;9.40;2.40;;;5.10;99.90;;;;;;5096890;28;20462;-71
2023/02/04 02:00:16;;;;;;;9.60;2.73;;;5.10;99.90;;;;;;5097068;28;20443;-71
2023/02/04 02:02:47;;;;;;;7.30;2.63;;;5.10;99.90;;;;;;5096954;28;20484;-71
2023/02/04 02:05:17;;;;;;;9.50;2.70;;;5.10;99.90;;;;;;5096971;28;20443;-71
2023/02/04 02:07:45;;;;;;;8.33;3.00;;;5.00;99.90;;;;;;5096828;28;20440;-71
2023/02/04 02:10:15;;;;;;;7.27;3.30;;;5.00;99.90;;;;;;5096848;28;20946;-71
2023/02/04 02:12:43;;;;;;;7.27;2.40;;;5.00;99.90;;;;;;5096729;28;20439;-71
2023/02/04 02:15:14;;;;;;;7.60;2.10;;;5.00;99.90;;;;;;5114952;28;20463;-71
2023/02/04 02:17:43;;;;;;;8.63;2.37;;;5.00;99.90;;;;;;5096877;28;20445;-71
2023/02/04 02:20:15;;;;;;;6.60;1.97;;;5.00;99.90;;;;;;5096619;28;20958;-71
2023/02/04 02:22:52;;;;;;;10.20;2.30;;;5.00;99.90;;;;;;5115205;28;20443;-71
2023/02/04 02:25:21;;;;;;;8.37;2.70;;;4.90;99.90;;;;;;5115154;28;20415;-71
2023/02/04 02:27:50;;;;;;;8.93;2.63;;;4.90;99.90;;;;;;5114957;28;20435;-71
2023/02/04 02:30:19;;;;;;;7.67;2.40;;;4.90;99.90;;;;;;5096432;28;20447;-71
2023/02/04 02:32:48;;;;;;;8.00;2.20;;;4.90;99.90;;;;;;5096421;28;20442;-71
2023/02/04 02:35:16;;;;;;;8.40;2.80;;;4.90;99.90;;;;;;5114787;28;20973;-71
2023/02/04 02:37:44;;;;;;;11.33;3.00;;;4.80;99.90;;;;;;5114716;28;20435;-71
2023/02/04 02:40:13;;;;;;;7.30;2.40;;;4.80;99.90;;;;;;5114484;28;20526;-71
2023/02/04 02:42:45;;;;;;;7.73;2.53;;;4.80;99.90;;;;;;5096559;28;20893;-72
2023/02/04 02:45:22;;;;;;;7.03;2.40;;;4.70;99.90;;;;;;5115491;28;20424;-71
2023/02/04 02:47:51;;;;;;;11.70;2.53;;;4.70;99.90;;;;;;5097250;28;20438;-70
2023/02/04 02:50:23;;;;;;;9.17;3.60;;;4.70;99.90;;;;;;5096509;28;20446;-70
2023/02/04 02:52:52;;;;;;;5.87;2.20;;;4.70;99.90;;;;;;5096673;28;20439;-70
2023/02/04 02:55:24;;;;;;;7.23;2.13;;;4.70;99.90;;;;;;5096110;28;20478;-70
2023/02/04 02:57:55;;;;;;;10.07;2.50;;;4.70;99.90;;;;;;5095792;28;20502;-70
2023/02/04 03:00:26;;;;;;;9.27;2.40;;;4.70;99.90;;;;;;5095910;28;20439;-71
2023/02/04 03:03:00;;;;;;;7.93;2.03;;;4.70;99.90;;;;;;5096158;28;20443;-71
2023/02/04 03:05:32;;;;;;;10.63;3.60;;;4.70;99.90;;;;;;5095867;28;20440;-73
2023/02/04 03:08:01;;;;;;;7.27;2.20;;;4.60;99.90;;;;;;5095749;28;20804;-71
2023/02/04 03:10:29;;;;;;;7.10;2.93;;;4.60;99.90;;;;;;5095709;28;20466;-71
2023/02/04 03:12:59;;;;;;;7.70;2.80;;;4.60;99.90;;;;;;5095680;28;20530;-71
2023/02/04 03:15:29;;;;;;;7.50;2.57;;;4.60;99.90;;;;;;5095630;28;20535;-71
2023/02/04 03:17:59;;;;;;;8.13;2.83;;;4.50;99.90;;;;;;5095622;28;20536;-71
2023/02/04 03:20:30;;;;;;;6.77;2.10;;;4.50;99.90;;;;;;5114411;28;21013;-71
2023/02/04 03:22:59;;;;;;;9.27;2.40;;;4.50;99.90;;;;;;5095553;28;20967;-71
2023/02/04 03:25:28;;;;;;;7.50;2.43;;;4.40;99.90;;;;;;5095557;28;20969;-71
2023/02/04 03:27:59;;;;;;;6.47;2.57;;;4.40;99.90;;;;;;5095394;28;20459;-71
2023/02/04 03:30:27;;;;;;;7.20;2.73;;;4.40;99.90;;;;;;5095571;28;20458;-71
2023/02/04 03:32:56;;;;;;;8.50;2.60;;;4.30;99.90;;;;;;5095648;28;20458;-71
2023/02/04 03:35:24;;;;;;;8.93;3.10;;;4.30;99.90;;;;;;5114049;28;20489;-71
2023/02/04 03:37:52;;;;;;;6.90;2.17;;;4.30;99.90;;;;;;5113582;28;20985;-70
2023/02/04 03:40:20;;;;;;;6.73;2.57;;;4.20;99.90;;;;;;5113613;28;20937;-70
2023/02/04 03:42:49;;;;;;;8.23;2.40;;;4.20;99.90;;;;;;5113864;28;20530;-71
2023/02/04 03:45:18;;;;;;;6.63;2.40;;;4.20;99.90;;;;;;5095385;28;20868;-71
2023/02/04 03:47:46;;;;;;;7.17;2.53;;;4.10;99.90;;;;;;5113577;28;20435;-72
2023/02/04 03:50:15;;;;;;;6.97;2.60;;;4.10;99.90;;;;;;5113835;28;20432;-71
2023/02/04 03:52:44;;;;;;;5.03;1.97;;;4.10;99.90;;;;;;5113585;28;20433;-71
2023/02/04 03:55:12;;;;;;;5.80;2.37;;;4.00;99.90;;;;;;5095316;28;20460;-71
2023/02/04 03:57:40;;;;;;;6.27;2.30;;;4.00;99.90;;;;;;5113577;28;21041;-71
2023/02/04 04:00:09;;;;;;;7.00;2.10;;;4.00;99.90;;;;;;5095231;28;20493;-71
2023/02/04 04:02:42;;;;;;;7.73;2.43;;;3.90;99.90;;;;;;5113859;28;20434;-71
2023/02/04 04:05:11;;;;;;;6.87;2.60;;;3.90;99.90;;;;;;5114063;28;20427;-71
2023/02/04 04:07:39;;;;;;;6.30;2.60;;;3.90;99.90;;;;;;5096019;28;20835;-71
2023/02/04 04:10:07;;;;;;;8.30;2.90;;;3.90;99.90;;;;;;5117382;28;20439;-71
2023/02/04 04:12:35;;;;;;;7.73;3.10;;;3.80;99.90;;;;;;5117638;28;20442;-71
2023/02/04 04:15:05;;;;;;;5.73;2.40;;;3.80;99.90;;;;;;5117749;28;20977;-71
2023/02/04 04:17:33;;;;;;;7.47;2.83;;;3.70;99.90;;;;;;5099048;28;20450;-71
2023/02/04 04:20:04;;;;;;;8.30;3.03;;;3.70;99.90;;;;;;5098977;28;20447;-70
2023/02/04 04:22:32;;;;;;;5.03;2.60;;;3.70;99.90;;;;;;5117491;28;20423;-71
2023/02/04 04:25:00;;;;;;;9.17;3.60;;;3.60;99.90;;;;;;5117184;28;20431;-71
2023/02/04 04:27:29;;;;;;;8.87;3.17;;;3.60;99.90;;;;;;5117647;28;20439;-71
2023/02/04 04:29:57;;;;;;;4.70;2.30;;;3.60;99.90;;;;;;5098713;28;20451;-72
2023/02/04 04:32:25;;;;;;;5.80;2.67;;;3.60;99.90;;;;;;5117335;28;20430;-70
2023/02/04 04:34:53;;;;;;;7.27;2.50;;;3.60;99.90;;;;;;5117206;28;20842;-71
2023/02/04 04:37:23;;;;;;;5.87;2.90;;;3.50;99.90;;;;;;5098687;28;20450;-71
2023/02/04 04:39:51;;;;;;;5.73;2.50;;;3.50;99.90;;;;;;5117069;28;20446;-71
2023/02/04 04:42:19;;;;;;;12.10;3.63;;;3.50;99.90;;;;;;5116839;28;20431;-71
2023/02/04 04:44:47;;;;;;;5.53;2.50;;;3.50;99.90;;;;;;5117074;28;20431;-71
2023/02/04 04:47:15;;;;;;;6.07;3.00;;;3.40;99.90;;;;;;5098426;28;20447;-71
2023/02/04 04:49:43;;;;;;;4.93;2.90;;;3.40;99.90;;;;;;5116851;28;20465;-71
2023/02/04 04:52:11;;;;;;;5.57;2.73;;;3.40;99.90;;;;;;5116872;28;20957;-71
2023/02/04 04:54:40;;;;;;;7.70;2.80;;;3.40;99.90;;;;;;5116533;28;20428;-71
2023/02/04 04:57:08;;;;;;;7.80;2.50;;;3.30;99.90;;;;;;5116651;28;20845;-72
2023/02/04 04:59:36;;;;;;;7.30;2.93;;;3.30;99.90;;;;;;5116440;28;20465;-71
2023/02/04 05:02:04;;;;;;;6.80;2.93;;;3.30;99.90;;;;;;5098181;28;20452;-71
2023/02/04 05:04:32;;;;;;;8.97;2.60;;;3.30;99.90;;;;;;5098095;28;20447;-72
2023/02/04 05:07:00;;;;;;;8.43;3.80;;;3.30;99.90;;;;;;5116677;28;20428;-72
2023/02/04 05:09:29;;;;;;;5.97;2.60;;;3.20;99.90;;;;;;5116538;28;20462;-71
2023/02/04 05:11:58;;;;;;;7.93;3.20;;;3.20;99.90;;;;;;5116299;28;20428;-71
2023/02/04 05:14:27;;;;;;;7.00;3.07;;;3.20;99.90;;;;;;5116281;28;20427;-71
2023/02/04 05:16:55;;;;;;;10.57;3.70;;;3.20;99.90;;;;;;5116332;28;20474;-71
2023/02/04 05:19:23;;;;;;;6.70;3.70;;;3.20;99.90;;;;;;5116220;28;20480;-71
2023/02/04 05:21:51;;;;;;;8.60;4.47;;;3.20;99.90;;;;;;5116012;28;20435;-71
2023/02/04 05:24:19;;;;;;;10.63;5.40;;;3.20;99.90;;;;;;5116022;28;20431;-71
2023/02/04 05:26:47;;;;;;;11.83;5.83;;;3.10;99.90;;;;;;5097695;28;20484;-71
2023/02/04 05:29:16;;;;;;;8.93;4.50;;;3.20;99.90;;;;;;5116028;28;20511;-72
2023/02/04 05:31:44;;;;;;;8.73;4.50;;;3.10;99.90;;;;;;5115893;28;20931;-71
2023/02/04 05:34:12;;;;;;;6.87;3.90;;;3.10;99.90;;;;;;5097526;28;20457;-71
2023/02/04 05:36:40;;;;;;;9.63;3.90;;;3.10;99.90;;;;;;5115943;28;20952;-71
2023/02/04 05:39:09;;;;;;;5.90;3.23;;;3.10;99.90;;;;;;5115908;28;20459;-70
2023/02/04 05:41:37;;;;;;;5.10;2.70;;;3.10;99.90;;;;;;5115674;28;20439;-72
2023/02/04 05:44:05;;;;;;;9.57;3.93;;;3.10;99.90;;;;;;5115589;28;20828;-71
2023/02/04 05:46:35;;;;;;;7.70;2.97;;;3.00;99.90;;;;;;5097374;28;20837;-72
2023/02/04 05:49:03;;;;;;;7.20;3.50;;;3.10;99.90;;;;;;5097153;28;20470;-71
2023/02/04 05:51:31;;;;;;;7.97;4.13;;;3.00;99.90;;;;;;5115715;28;20555;-71
2023/02/04 05:53:59;;;;;;;6.40;3.60;;;3.00;99.90;;;;;;5115384;28;20432;-71
2023/02/04 05:56:27;;;;;;;9.33;4.07;;;3.00;99.90;;;;;;5115518;28;20471;-72
2023/02/04 05:58:55;;;;;;;5.43;3.23;;;3.00;99.90;;;;;;5115194;28;20465;-71
2023/02/04 06:01:24;;;;;;;6.53;3.23;;;3.00;99.90;;;;;;5115795;28;20474;-71
2023/02/04 06:03:53;;;;;;;8.50;3.70;;;3.00;99.90;;;;;;5116844;28;20810;-71
2023/02/04 06:06:21;;;;;;;7.20;3.80;;;3.00;99.90;;;;;;5115230;28;20435;-72
2023/02/04 06:08:49;;;;;;;5.30;3.73;;;3.00;99.90;;;;;;5096883;28;20479;-71
2023/02/04 06:11:17;;;;;;;7.97;3.33;;;3.00;99.90;;;;;;5115414;28;20447;-71
2023/02/04 06:13:45;;;;;;;5.83;3.93;;;3.00;99.90;;;;;;5115248;28;20439;-71
2023/02/04 06:16:13;;;;;;;4.97;2.90;;;3.00;99.90;;;;;;5096654;28;20833;-71
2023/02/04 06:18:42;;;;;;;5.67;3.53;;;3.00;99.90;;;;;;5115051;28;20538;-72
2023/02/04 06:21:11;;;;;;;7.00;3.80;;;2.90;99.90;;;;;;5114888;28;20938;-71
2023/02/04 06:23:39;;;;;;;7.23;5.07;;;2.90;99.90;;;;;;5096653;28;20482;-71
2023/02/04 06:26:07;;;;;;;7.57;3.47;;;2.90;99.90;;;;;;5114780;28;20446;-71
2023/02/04 06:28:35;;;;;;;5.97;3.70;;;2.90;99.90;;;;;;5114707;28;20459;-71
2023/02/04 06:31:04;;;;;;;6.20;3.67;;;2.90;99.90;;;;;;5114209;28;20510;-72
2023/02/04 06:33:32;;;;;;;6.97;4.10;;;2.90;99.90;;;;;;5114909;28;20521;-71
2023/02/04 06:36:00;;;;;;;6.90;4.30;;;2.90;99.90;;;;;;5114527;28;20446;-71
2023/02/04 06:38:29;;;;;;;6.37;3.97;;;2.80;99.90;;;;;;5114542;28;20477;-72
2023/02/04 06:40:57;;;;;;;7.80;4.67;;;2.80;99.90;;;;;;5115069;28;20438;-72
2023/02/04 06:43:26;;;;;;;7.60;4.23;;;2.80;99.90;;;;;;5114742;28;20433;-71
2023/02/04 06:45:55;;;;;;;6.30;4.37;;;2.80;99.90;;;;;;5114413;28;20448;-72
2023/02/04 06:48:23;;;;;;;9.13;5.10;;;2.80;99.90;;;;;;5096068;28;20526;-71
2023/02/04 06:50:51;;;;;;;7.63;5.03;;;2.80;99.90;;;;;;5096061;28;20455;-71
2023/02/04 06:53:19;;;;;;;7.40;5.40;;;2.70;99.90;;;;;;5096013;28;21016;-72
2023/02/04 06:55:49;;;;;;;8.47;5.40;;;2.70;99.90;;;;;;5114623;28;20443;-71
2023/02/04 06:58:17;;;;;;;5.80;4.60;;;2.70;99.90;;;;;;5114929;28;20484;-72
2023/02/04 07:00:45;;;;;;;6.20;4.47;;;2.60;99.90;;;;;;5096245;28;20447;-71
2023/02/04 07:03:13;;;;;;;8.20;5.17;;;2.60;99.90;;;;;;5096370;28;20819;-71
2023/02/04 07:05:41;;;;;;;7.10;5.00;;;2.60;99.90;;;;;;5114159;28;20921;-71
2023/02/04 07:08:09;;;;;;;7.60;5.03;;;2.60;99.90;;;;;;5095899;28;20468;-71
2023/02/04 07:10:37;;;;;;;7.33;5.27;;;2.50;99.90;;;;;;5114052;28;20936;-72
2023/02/04 07:13:06;;;;;;;4.83;3.97;;;2.50;99.90;;;;;;5113995;28;20485;-72
2023/02/04 07:15:35;;;;;;;6.80;5.00;;;2.50;99.90;;;;;;5095700;28;20511;-71
2023/02/04 07:18:03;;;;;;;6.23;4.93;;;2.50;99.90;;;;;;5095506;28;20997;-71
2023/02/04 07:20:31;;;;;;;6.40;5.70;;;2.50;99.90;;;;;;5113851;28;21001;-72
2023/02/04 07:23:00;;;;;;;8.13;6.90;;;2.50;99.90;;;;;;5114099;28;20533;-72
2023/02/04 07:25:28;;;;;;;8.57;6.60;;;2.40;99.90;;;;;;5095484;28;20499;-71
2023/02/04 07:27:58;;;;;;;7.67;6.30;;;2.40;99.90;;;;;;5113651;28;20451;-72
2023/02/04 07:30:27;;;;;;;6.77;5.33;;;2.50;99.90;;;;;;5113643;28;20936;-72
2023/02/04 07:32:55;;;;;;;9.83;6.90;;;2.50;99.90;;;;;;5113946;28;20446;-72
2023/02/04 07:35:23;;;;;;;8.53;6.43;;;2.50;99.90;;;;;;5095395;28;20440;-71
2023/02/04 07:37:52;;;;;;;9.20;5.63;;;2.50;99.90;;;;;;5095584;28;20478;-72
2023/02/04 07:40:20;;;;;;;7.40;5.93;;;2.50;99.90;;;;;;5095377;28;20818;-72
2023/02/04 07:42:48;;;;;;;7.70;5.73;;;2.60;99.90;;;;;;5114743;28;20528;-72
2023/02/04 07:45:18;;;;;;;9.90;6.50;;;2.60;99.90;;;;;;5099660;28;20450;-72
2023/02/04 07:47:48;;;;;;;8.97;6.90;;;2.60;99.90;;;;;;5117999;28;20768;-72
2023/02/04 07:50:16;;;;;;;9.17;6.97;;;2.60;99.90;;;;;;5117788;28;20457;-72
2023/02/04 07:52:44;;;;;;;6.80;5.83;;;2.60;99.90;;;;;;5117690;28;20451;-72
2023/02/04 07:55:12;;;;;;;9.00;5.53;;;2.60;99.90;;;;;;5099363;28;20451;-72
2023/02/04 07:57:40;;;;;;;7.40;6.07;;;2.70;99.90;;;;;;5099012;28;20486;-72
2023/02/04 08:00:12;;;;;;;9.40;6.20;;;2.70;99.90;;;;;;5099344;28;20806;-72
2023/02/04 08:02:41;;;;;;;8.10;6.50;;;2.70;99.90;;;;;;5099250;28;20439;-72
2023/02/04 08:05:11;;;;;;;8.20;7.03;;;2.70;99.90;;;;;;5117466;28;20523;-72
2023/02/04 08:07:39;;;;;;;8.73;6.77;;;2.70;99.90;;;;;;5117392;28;20941;-72
2023/02/04 08:10:09;;;;;;;8.90;7.00;;;2.70;99.90;;;;;;5117667;28;20443;-71
2023/02/04 08:12:37;;;;;;;10.27;6.77;;;2.80;99.90;;;;;;5117869;28;20435;-71
2023/02/04 08:15:07;;;;;;;8.30;6.83;;;2.80;99.90;;;;;;5117587;28;20431;-72
2023/02/04 08:17:35;;;;;;;13.93;9.27;;;2.90;99.90;;;;;;5117286;28;20539;-71
2023/02/04 08:20:04;;;;;;;10.30;8.00;;;2.90;99.90;;;;;;5117109;28;20967;-71
2023/02/04 08:22:34;;;;;;;11.40;7.93;;;2.90;99.90;;;;;;5117678;28;20499;-72
2023/02/04 08:25:02;;;;;;;12.80;9.57;;;2.90;99.90;;;;;;5117432;28;20427;-71
2023/02/04 08:27:30;;;;;;;10.60;9.00;;;3.00;99.90;;;;;;5117080;28;20435;-72
2023/02/04 08:29:58;;;;;;;12.63;8.07;;;3.00;99.90;;;;;;5117217;28;20431;-71
2023/02/04 08:32:28;;;;;;;9.70;7.87;;;3.00;99.90;;;;;;5117412;28;20921;-71
2023/02/04 08:34:56;;;;;;;10.40;7.90;;;3.10;99.90;;;;;;5117688;28;20941;-71
2023/02/04 08:37:24;;;;;;;8.80;7.47;;;3.10;99.90;;;;;;5098727;28;20474;-72
2023/02/04 08:39:54;;;;;;;10.20;7.93;;;3.10;99.90;;;;;;5098691;28;20840;-71
2023/02/04 08:42:22;;;;;;;12.00;9.00;;;3.10;99.90;;;;;;5098804;28;20454;-71
2023/02/04 08:44:50;;;;;;;9.57;8.63;;;3.20;99.90;;;;;;5098855;28;20443;-71
2023/02/04 08:47:18;;;;;;;11.00;8.00;;;3.20;99.90;;;;;;5098500;28;20789;-71
2023/02/04 08:49:46;;;;;;;9.00;7.90;;;3.20;99.90;;;;;;5116727;28;20447;-72
2023/02/04 08:52:14;;;;;;;8.77;7.87;;;3.20;99.90;;;;;;5116777;28;20445;-71
2023/02/04 08:54:43;;;;;;;9.60;8.60;;;3.20;99.90;;;;;;5097908;28;20443;-71
2023/02/04 08:57:12;;;;;;;8.47;7.67;;;3.20;99.90;;;;;;5098104;28;20440;-72
2023/02/04 08:59:40;;;;;;;11.40;8.40;;;3.30;99.90;;;;;;5098786;28;20465;-71
2023/02/04 09:02:09;;;;;;;9.70;8.70;;;3.30;99.90;;;;;;5098096;28;20852;-71
2023/02/04 09:04:38;;;;;;;10.70;9.60;;;3.40;99.90;;;;;;5116658;28;20431;-71
2023/02/04 09:07:06;;;;;;;11.67;9.43;;;3.40;99.90;;;;;;5116875;28;20439;-71
2023/02/04 09:09:34;;;;;;;10.93;9.83;;;3.50;99.90;;;;;;5098632;28;21053;-71
2023/02/04 09:12:02;;;;;;;13.60;9.20;;;3.50;99.90;;;;;;5116833;28;20442;-71
2023/02/04 09:14:31;;;;;;;11.20;9.53;;;3.50;99.90;;;;;;5116400;28;20510;-71
2023/02/04 09:17:00;;;;;;;11.80;9.70;;;3.50;99.90;;;;;;5116122;28;20448;-71
2023/02/04 09:19:28;;;;;;;10.63;9.60;;;3.50;99.90;;;;;;5097615;28;20479;-71
2023/02/04 09:21:56;;;;;;;9.80;8.83;;;3.60;99.90;;;;;;5116383;28;20423;-71
2023/02/04 09:24:24;;;;;;;13.10;11.80;;;3.60;99.90;;;;;;5116194;28;20443;-71
2023/02/04 09:26:52;;;;;;;10.70;9.43;;;3.60;99.90;;;;;;5116055;28;20485;-71
2023/02/04 09:29:20;;;;;;;10.17;9.27;;;3.60;99.90;;;;;;5097446;28;20459;-71
2023/02/04 09:31:50;;;;;;;10.87;9.30;;;3.60;99.90;;;;;;5116000;28;20439;-71
2023/02/04 09:34:18;;;;;;;10.73;8.43;;;3.70;99.90;;;;;;5115953;28;20436;-71
2023/02/04 09:36:46;;;;;;;12.27;8.33;;;3.70;99.90;;;;;;5097492;28;21021;-71
2023/02/04 09:39:14;;;;;;;10.13;9.13;;;3.70;99.90;;;;;;5115680;28;20483;-71
2023/02/04 09:41:43;;;;;;;12.03;9.20;;;3.80;99.90;;;;;;5115857;28;20491;-71
2023/02/04 09:44:15;;;;;;;9.87;8.87;;;3.90;99.90;;;;;;5115773;28;20443;-71
2023/02/04 09:46:47;;;;;;;8.10;7.13;;;3.90;99.90;;;;;;5097243;28;20431;-71
2023/02/04 09:49:17;;;;;;;9.27;7.57;;;4.00;99.90;;;;;;5115620;28;20466;-71
2023/02/04 09:51:47;;;;;;;7.57;6.77;;;4.00;99.90;;;;;;5115417;28;20466;-72
2023/02/04 09:54:18;;;;;;;8.43;7.50;;;4.10;99.90;;;;;;5097096;28;20443;-71
2023/02/04 09:56:46;;;;;;;8.87;7.50;;;4.20;99.90;;;;;;5115341;28;20416;-71
2023/02/04 09:59:17;;;;;;;8.80;7.90;;;4.20;99.90;;;;;;5114951;28;20483;-71
2023/02/04 10:01:45;;;;;;;7.63;6.77;;;4.20;99.90;;;;;;5115793;28;20415;-71
2023/02/04 10:04:15;;;;;;;10.53;6.67;;;4.30;99.90;;;;;;5115119;28;20530;-71
2023/02/04 10:06:44;;;;;;;7.27;6.00;;;4.40;99.90;;;;;;5114254;28;20439;-71
2023/02/04 10:09:14;;;;;;;6.03;5.43;;;4.40;99.90;;;;;;5115308;28;20973;-70
2023/02/04 10:11:44;;;;;;;6.47;5.87;;;4.50;99.90;;;;;;5115087;28;20455;-71
2023/02/04 10:14:15;;;;;;;6.53;5.57;;;4.50;99.90;;;;;;5115522;28;20497;-71
2023/02/04 10:16:46;;;;;;;5.30;4.77;;;4.50;99.90;;;;;;5115221;28;20427;-70
2023/02/04 10:19:15;;;;;;;8.30;6.43;;;4.50;99.90;;;;;;5096431;28;20502;-71
2023/02/04 10:21:46;;;;;;;6.53;5.37;;;4.60;99.90;;;;;;5096526;28;20458;-72
2023/02/04 10:24:16;;;;;;;6.43;5.53;;;4.60;99.90;;;;;;5096562;28;20431;-71
2023/02/04 10:26:45;;;;;;;5.37;4.30;;;4.60;99.90;;;;;;5114988;28;20451;-71
2023/02/04 10:29:15;;;;;;;6.90;5.53;;;4.60;99.90;;;;;;5114572;28;20455;-72
2023/02/04 10:31:45;;;;;;;6.20;5.07;;;4.70;99.90;;;;;;5114867;28;20427;-71
2023/02/04 10:34:15;;;;;;;5.50;4.43;;;4.70;99.90;;;;;;5114508;28;20933;-71
2023/02/04 10:36:49;;;;;;;5.00;4.20;;;4.70;99.90;;;;;;5114563;28;20954;-72
2023/02/04 10:39:19;;;;;;;5.00;4.27;;;4.70;99.90;;;;;;5114615;28;20502;-72
2023/02/04 10:41:49;;;;;;;4.63;3.57;;;4.80;99.90;;;;;;5114775;28;20420;-72
2023/02/04 10:44:19;;;;;;;5.03;4.27;;;4.80;99.90;;;;;;5114527;28;20491;-71
2023/02/04 10:46:48;;;;;;;5.23;4.00;;;4.80;99.90;;;;;;5114610;28;20434;-71
2023/02/04 10:49:21;;;;;;;5.50;4.40;;;4.90;99.90;;;;;;5095924;28;20498;-72
2023/02/04 10:51:52;;;;;;;6.37;5.17;;;4.90;99.90;;;;;;5114359;28;20756;-72
2023/02/04 10:54:32;;;;;;;5.00;4.43;;;4.90;99.90;;;;;;5096471;28;20461;-71
2023/02/04 10:57:07;;;;;;;4.97;3.93;;;5.00;99.90;;;;;;5096440;28;20443;-72
2023/02/04 10:59:36;;;;;;;5.30;3.80;;;5.00;99.90;;;;;;5114526;28;20462;-71
2023/02/04 11:02:37;;;;;;;4.87;3.70;;;5.10;99.90;;;;;;5114476;28;20458;-71
2023/02/04 11:05:12;;;;;;;5.13;3.70;;;5.10;99.90;;;;;;5114013;28;20451;-72
2023/02/04 11:07:42;;;;;;;6.60;5.20;;;5.20;99.90;;;;;;5095718;28;20977;-72
2023/02/04 11:10:16;;;;;;;4.30;3.17;;;5.20;99.90;;;;;;5114258;28;20527;-72
2023/02/04 11:12:46;;;;;;;6.27;4.27;;;5.20;99.90;;;;;;5095742;28;20440;-72
2023/02/04 11:15:38;;;;;;;5.47;3.90;;;5.30;99.90;;;;;;5095715;28;20530;-71
2023/02/04 11:18:08;;;;;;;5.20;3.90;;;5.30;99.90;;;;;;5113975;28;20876;-71
2023/02/04 11:20:38;;;;;;;4.60;4.00;;;5.30;99.90;;;;;;5114000;28;20455;-71
2023/02/04 11:23:33;;;;;;;5.20;3.70;;;5.30;99.90;;;;;;5113717;28;20471;-71
2023/02/04 11:26:07;;;;;;;6.97;3.80;;;5.40;99.90;;;;;;5114008;28;20419;-71
2023/02/04 11:29:09;;;;;;;4.60;3.10;;;5.40;99.90;;;;;;5114172;28;20452;-72
2023/02/04 11:31:56;;;;;;;5.13;4.33;;;5.50;99.90;;;;;;5113611;28;20502;-71
2023/02/04 11:34:28;;;;;;;4.90;3.30;;;5.50;99.90;;;;;;5114218;28;20826;-71
2023/02/04 11:37:08;;;;;;;4.33;3.20;;;5.50;99.90;;;;;;5113950;28;20453;-71
2023/02/04 11:39:40;;;;;;;4.00;3.17;;;5.50;99.90;;;;;;5113703;28;20514;-71
2023/02/04 11:42:18;;;;;;;5.00;4.10;;;5.50;99.90;;;;;;5113847;28;20416;-72
2023/02/04 11:44:54;;;;;;;6.60;4.90;;;5.60;99.90;;;;;;5113789;28;20473;-72
2023/02/04 11:47:24;;;;;;;4.67;3.60;;;5.60;99.90;;;;;;5113864;28;20415;-71
2023/02/04 11:49:58;;;;;;;5.30;3.50;;;5.60;99.90;;;;;;5095212;28;20513;-72
2023/02/04 11:52:27;;;;;;;6.43;3.80;;;5.60;99.90;;;;;;5113862;28;20910;-72
2023/02/04 11:54:59;;;;;;;5.00;3.60;;;5.70;99.90;;;;;;5095438;28;20542;-72
2023/02/04 11:57:28;;;;;;;4.33;3.43;;;5.70;99.90;;;;;;5113642;28;20473;-71
2023/02/04 11:59:56;;;;;;;4.67;3.50;;;5.70;99.90;;;;;;5095097;28;20479;-72
2023/02/04 12:02:25;;;;;;;6.03;3.50;;;5.70;99.90;;;;;;5114102;28;20469;-72
2023/02/04 12:04:56;;;;;;;4.67;3.10;;;5.70;99.90;;;;;;5095255;28;20452;-72
2023/02/04 12:07:27;;;;;;;5.10;3.37;;;5.80;99.90;;;;;;5113601;28;20488;-71
2023/02/04 12:09:57;;;;;;;5.07;3.57;;;5.80;99.90;;;;;;5094991;28;20981;-72
2023/02/04 12:12:27;;;;;;;4.57;3.33;;;5.90;99.90;;;;;;5113135;28;20427;-72
2023/02/04 12:15:03;;;;;;;4.30;2.97;;;5.90;99.90;;;;;;5094934;28;20458;-72
2023/02/04 12:17:31;;;;;;;4.80;3.47;;;6.00;99.90;;;;;;5096076;28;20432;-71
2023/02/04 12:19:59;;;;;;;4.57;3.63;;;6.00;99.90;;;;;;5113379;28;20808;-71
2023/02/04 12:22:27;;;;;;;5.00;3.57;;;6.00;99.90;;;;;;5113197;28;20428;-72
2023/02/04 12:24:56;;;;;;;4.70;3.57;;;6.00;99.90;;;;;;5113193;28;20435;-72
2023/02/04 12:27:24;;;;;;;4.00;3.00;;;6.00;99.90;;;;;;5113127;28;20440;-71
2023/02/04 12:29:52;;;;;;;4.40;3.60;;;6.00;99.90;;;;;;5116124;28;20452;-72
2023/02/04 12:32:20;;;;;;;5.07;4.00;;;6.10;99.90;;;;;;5098979;28;20849;-71
2023/02/04 12:34:48;;;;;;;4.70;3.77;;;6.10;99.90;;;;;;5117275;28;20443;-70
2023/02/04 12:37:16;;;;;;;4.53;3.63;;;6.10;99.90;;;;;;5116968;28;20427;-72
2023/02/04 12:39:44;;;;;;;5.20;3.80;;;6.10;99.90;;;;;;5116665;28;20568;-72
2023/02/04 12:42:14;;;;;;;4.60;3.43;;;6.20;99.90;;;;;;5098588;28;20781;-71
2023/02/04 12:44:42;;;;;;;5.30;3.60;;;6.20;99.90;;;;;;5098475;28;20452;-71
2023/02/04 12:47:10;;;;;;;5.00;3.37;;;6.20;99.90;;;;;;5117163;28;20445;-72
2023/02/04 12:49:38;;;;;;;4.73;3.40;;;6.20;99.90;;;;;;5117087;28;20454;-71
2023/02/04 12:52:06;;;;;;;5.03;3.53;;;6.30;99.90;;;;;;5116593;28;20470;-71
2023/02/04 12:54:34;;;;;;;5.67;3.70;;;6.30;99.90;;;;;;5098278;28;20497;-72
2023/02/04 12:57:02;;;;;;;5.40;3.63;;;6.30;99.90;;;;;;5117629;28;20760;-71
2023/02/04 12:59:32;;;;;;;5.40;3.80;;;6.30;99.90;;;;;;5116244;28;20471;-72
2023/02/04 13:02:00;;;;;;;5.63;3.80;;;6.30;99.90;;;;;;5116669;28;20453;-72
2023/02/04 13:04:28;;;;;;;4.63;3.80;;;6.30;99.90;;;;;;5116959;28;20436;-72
2023/02/04 13:06:56;;;;;;;4.80;3.43;;;6.30;99.90;;;;;;5116629;28;20427;-72